Time;durP1;ratioP1;P1;durP2;ratioP2;P2;SDS_P1;SDS_P2;PMS_P1;PMS_P2;Temp;Humidity;BMP_temperature;BMP_pressure;BME280_temperature;BME280_humidity;BME280_pressure;Samples;Min_cycle;Max_cycle;Signal;HPM_P1;HPM_P2
2021/10/19 00:01:08;;;;;;;25.52;16.27;;;;;;;9.68;71.08;102178.59;1732620;82;21708;-82
2021/10/19 00:03:35;;;;;;;26.50;16.40;;;;;;;9.68;71.14;102175.08;1732498;82;21055;-82
2021/10/19 00:06:01;;;;;;;26.57;16.37;;;;;;;9.69;71.18;102172.95;1732758;82;21540;-83
2021/10/19 00:08:28;;;;;;;23.47;15.20;;;;;;;9.67;71.17;102175.92;1732650;82;21584;-82
2021/10/19 00:10:57;;;;;;;24.75;15.98;;;;;;;9.66;71.11;102171.47;1732328;82;21025;-82
2021/10/19 00:13:23;;;;;;;25.92;15.65;;;;;;;9.61;71.20;102162.05;1732713;82;21752;-83
2021/10/19 00:15:50;;;;;;;26.87;16.17;;;;;;;9.61;71.30;102153.23;1732570;82;21063;-83
2021/10/19 00:18:19;;;;;;;24.82;15.98;;;;;;;9.60;71.41;102159.33;1708329;82;22488;-83
2021/10/19 00:20:49;;;;;;;24.18;15.20;;;;;;;9.57;71.50;102156.11;1732877;82;21047;-83
2021/10/19 00:23:19;;;;;;;28.12;16.00;;;;;;;9.56;71.58;102162.63;1732212;82;21090;-83
2021/10/19 00:25:48;;;;;;;25.27;15.85;;;;;;;9.55;71.69;102157.77;1732459;82;21793;-83
2021/10/19 00:28:13;;;;;;;24.02;14.73;;;;;;;9.54;71.73;102158.61;1732445;82;21078;-83
2021/10/19 00:30:42;;;;;;;25.68;15.43;;;;;;;9.55;71.87;102156.45;1708174;82;21569;-83
2021/10/19 00:33:11;;;;;;;26.82;16.60;;;;;;;9.57;71.96;102151.28;1732955;82;20988;-83
2021/10/19 00:35:43;;;;;;;29.95;18.98;;;;;;;9.57;71.96;102144.70;1732719;82;21525;-83
2021/10/19 00:38:14;;;;;;;30.82;18.92;;;;;;;9.55;72.04;102140.67;1732281;82;21881;-83
2021/10/19 00:40:52;;;;;;;32.03;20.57;;;;;;;9.54;72.17;102134.95;1732152;82;21286;-83
2021/10/19 00:43:14;;;;;;;35.10;20.40;;;;;;;9.50;72.24;102135.20;1728972;82;21608;-83
2021/10/19 00:45:41;;;;;;;35.17;22.25;;;;;;;9.49;72.38;102139.05;1732800;82;21580;-83
2021/10/19 00:48:10;;;;;;;32.63;21.02;;;;;;;9.48;72.49;102135.95;1733577;81;21080;-83
2021/10/19 00:50:36;;;;;;;33.80;20.15;;;;;;;9.45;72.53;102132.73;1743083;82;22900;-83
2021/10/19 00:53:07;;;;;;;32.58;21.00;;;;;;;9.47;72.68;102127.14;1743354;82;21539;-82
2021/10/19 00:55:34;;;;;;;30.55;19.48;;;;;;;9.49;72.75;102136.42;1743067;82;21083;-83
2021/10/19 00:58:01;;;;;;;41.35;20.90;;;;;;;9.48;72.75;102130.70;1743450;82;21137;-83
2021/10/19 01:00:34;;;;;;;35.17;21.07;;;;;;;9.45;72.83;102128.80;1710524;82;21039;-83
2021/10/19 01:03:03;;;;;;;37.67;21.37;;;;;;;9.46;72.92;102132.31;1710381;82;21102;-83
2021/10/19 01:05:29;;;;;;;32.25;20.85;;;;;;;9.46;72.90;102134.55;1743091;82;21093;-83
2021/10/19 01:07:56;;;;;;;34.43;21.30;;;;;;;9.45;72.98;102133.16;1743341;82;21070;-83
2021/10/19 01:10:23;;;;;;;33.53;19.52;;;;;;;9.44;72.96;102132.27;1743419;82;21153;-83
2021/10/19 01:12:53;;;;;;;30.45;19.25;;;;;;;9.45;73.00;102131.84;1743183;82;21620;-83
2021/10/19 01:15:23;;;;;;;39.98;21.85;;;;;;;9.42;73.01;102125.10;1743335;82;21815;-83
2021/10/19 01:17:57;;;;;;;41.63;22.10;;;;;;;9.42;73.04;102125.10;1742418;82;21596;-83
2021/10/19 01:20:28;;;;;;;35.65;20.97;;;;;;;9.41;73.06;102125.95;1741359;82;21073;-83
2021/10/19 01:22:58;;;;;;;39.18;21.75;;;;;;;9.41;73.18;102124.63;1743137;82;21698;-83
2021/10/19 01:25:27;;;;;;;37.15;22.07;;;;;;;9.40;73.09;102124.13;1743262;82;21098;-83
2021/10/19 01:27:59;;;;;;;36.20;21.45;;;;;;;9.37;73.22;102120.94;1743392;82;22410;-83
2021/10/19 01:30:26;;;;;;;40.17;23.27;;;;;;;9.35;73.18;102125.22;1743124;82;21655;-83
2021/10/19 01:32:53;;;;;;;34.75;21.75;;;;;;;9.30;73.23;102126.27;1743181;82;21073;-82
2021/10/19 01:35:21;;;;;;;37.10;22.10;;;;;;;9.29;73.37;102127.11;1743367;82;21168;-83
2021/10/19 01:37:48;;;;;;;36.93;22.55;;;;;;;9.28;73.37;102122.66;1741559;82;21620;-83
2021/10/19 01:40:16;;;;;;;36.77;21.57;;;;;;;9.27;73.39;102110.75;1711988;82;21820;-83
2021/10/19 01:42:46;;;;;;;41.90;21.65;;;;;;;9.29;73.51;102111.73;1743187;82;21639;-83
2021/10/19 01:45:14;;;;;;;36.28;22.77;;;;;;;9.30;73.50;102109.61;1742404;82;21070;-83
2021/10/19 01:47:41;;;;;;;36.85;21.80;;;;;;;9.32;73.54;102110.59;1742726;82;21012;-83
2021/10/19 01:50:08;;;;;;;38.17;22.98;;;;;;;9.31;73.48;102105.75;1742865;81;21003;-83
2021/10/19 01:52:35;;;;;;;41.90;23.98;;;;;;;9.28;73.41;102104.27;1742792;82;21902;-83
2021/10/19 01:55:04;;;;;;;40.98;23.87;;;;;;;9.29;73.42;102103.85;1743089;82;21117;-83
2021/10/19 01:57:33;;;;;;;38.08;23.57;;;;;;;9.28;73.40;102102.06;1743081;82;21036;-83
2021/10/19 02:00:07;;;;;;;50.85;24.57;;;;;;;9.30;73.43;102101.31;1742329;82;21055;-83
2021/10/19 02:02:28;;;;;;;43.33;26.73;;;;;;;9.30;73.36;102107.87;1741068;82;21054;-83
2021/10/19 02:04:59;;;;;;;44.00;26.77;;;;;;;9.26;73.30;102099.77;1709941;82;21083;-83
2021/10/19 02:07:27;;;;;;;45.33;26.95;;;;;;;9.28;73.40;102103.38;1709982;82;21102;-83
2021/10/19 02:09:59;;;;;;;49.45;29.15;;;;;;;9.25;73.30;102099.27;1709637;82;22261;-83
2021/10/19 02:12:24;;;;;;;49.45;28.50;;;;;;;9.23;73.31;102103.55;1742084;82;21062;-83
2021/10/19 02:14:51;;;;;;;49.70;29.98;;;;;;;9.21;73.26;102094.68;1743089;82;21584;-83
2021/10/19 02:17:21;;;;;;;51.90;29.45;;;;;;;9.20;73.26;102095.52;1743146;82;21815;-83
2021/10/19 02:19:51;;;;;;;53.73;30.60;;;;;;;9.17;73.23;102087.47;1743107;82;21011;-83
2021/10/19 02:22:19;;;;;;;51.85;30.20;;;;;;;9.14;73.27;102088.19;1742374;82;21544;-82
2021/10/19 02:24:46;;;;;;;54.00;29.70;;;;;;;9.13;73.30;102086.41;1742742;82;21078;-83
2021/10/19 02:27:13;;;;;;;52.27;30.52;;;;;;;9.11;73.35;102085.00;1743013;82;21078;-82
2021/10/19 02:29:40;;;;;;;58.75;30.65;;;;;;;9.08;73.36;102077.37;1743033;82;21761;-82
2021/10/19 02:32:07;;;;;;;50.80;29.23;;;;;;;9.06;73.36;102077.28;1743161;82;21023;-82
2021/10/19 02:34:38;;;;;;;49.75;28.52;;;;;;;9.01;73.44;102068.28;1742507;82;21140;-82
2021/10/19 02:37:05;;;;;;;48.55;27.45;;;;;;;8.95;73.52;102070.18;1743050;82;21580;-82
2021/10/19 02:39:35;;;;;;;51.83;27.48;;;;;;;8.94;73.62;102072.30;1743193;82;21078;-82
2021/10/19 02:42:03;;;;;;;50.43;27.65;;;;;;;8.93;73.77;102068.27;1742560;82;21796;-82
2021/10/19 02:44:33;;;;;;;48.45;25.43;;;;;;;8.91;73.86;102068.61;1709983;82;21061;-82
2021/10/19 02:46:59;;;;;;;46.23;26.05;;;;;;;8.90;73.92;102067.72;1742346;82;21560;-82
2021/10/19 02:49:26;;;;;;;47.15;25.23;;;;;;;8.88;73.92;102079.86;1739107;81;21068;-82
2021/10/19 02:51:53;;;;;;;44.23;25.17;;;;;;;8.87;74.04;102078.05;1732628;82;21050;-82
2021/10/19 02:54:19;;;;;;;41.28;25.55;;;;;;;8.86;74.05;102076.25;1732661;82;22590;-82
2021/10/19 02:56:46;;;;;;;49.80;26.10;;;;;;;8.87;74.14;102079.77;1732286;82;21039;-82
2021/10/19 02:59:13;;;;;;;45.65;24.90;;;;;;;8.86;74.11;102080.58;1732583;82;21003;-83
2021/10/19 03:01:43;;;;;;;45.52;24.37;;;;;;;8.84;74.23;102080.52;1732754;82;21070;-82
2021/10/19 03:04:09;;;;;;;47.73;26.30;;;;;;;8.86;74.31;102080.58;1732202;82;21498;-82
2021/10/19 03:06:36;;;;;;;46.10;26.25;;;;;;;8.87;74.35;102075.83;1732573;82;21714;-82
2021/10/19 03:09:04;;;;;;;44.35;24.25;;;;;;;8.87;74.49;102079.77;1707985;82;21078;-82
2021/10/19 03:11:33;;;;;;;40.40;24.67;;;;;;;8.86;74.49;102077.56;1732743;82;21016;-83
2021/10/19 03:13:59;;;;;;;42.98;25.75;;;;;;;8.86;74.62;102076.25;1732732;82;21554;-83
2021/10/19 03:16:29;;;;;;;48.58;26.37;;;;;;;8.87;74.70;102080.67;1732937;82;21020;-83
2021/10/19 03:18:55;;;;;;;44.58;25.55;;;;;;;8.88;74.70;102082.91;1732676;82;21432;-83
2021/10/19 03:21:22;;;;;;;40.45;23.90;;;;;;;8.87;74.71;102078.05;1732552;82;20997;-82
2021/10/19 03:23:48;;;;;;;45.33;24.37;;;;;;;8.89;74.79;102082.96;1732526;82;21509;-82
2021/10/19 03:26:16;;;;;;;40.60;22.37;;;;;;;8.92;74.85;102078.30;1732470;82;21066;-83
2021/10/19 03:28:46;;;;;;;38.30;22.73;;;;;;;8.91;74.84;102074.75;1732725;82;21408;-82
2021/10/19 03:31:12;;;;;;;37.33;21.42;;;;;;;8.91;74.85;102078.69;1732574;82;21764;-82
2021/10/19 03:33:41;;;;;;;33.98;20.82;;;;;;;8.90;74.84;102082.58;1684584;82;21054;-82
2021/10/19 03:36:08;;;;;;;35.03;19.98;;;;;;;8.92;74.95;102082.24;1732711;82;21008;-83
2021/10/19 03:38:35;;;;;;;34.90;20.90;;;;;;;8.94;75.00;102081.91;1732869;82;21608;-83
2021/10/19 03:41:02;;;;;;;32.28;19.60;;;;;;;8.94;74.98;102079.28;1732814;82;21059;-82
2021/10/19 03:43:29;;;;;;;34.53;20.32;;;;;;;8.92;74.97;102080.51;1732776;81;21692;-82
2021/10/19 03:45:55;;;;;;;35.73;20.72;;;;;;;8.91;75.02;102077.80;1732616;82;21082;-83
2021/10/19 03:48:24;;;;;;;31.48;19.80;;;;;;;8.91;75.08;102081.31;1732727;82;21050;-83
2021/10/19 03:50:53;;;;;;;39.13;20.52;;;;;;;8.89;75.14;102073.77;1740989;82;21046;-81
2021/10/19 03:53:23;;;;;;;32.95;18.57;;;;;;;8.90;75.21;102083.89;1742874;82;21019;-83
2021/10/19 03:55:51;;;;;;;33.28;19.30;;;;;;;8.90;75.22;102082.58;1743246;81;21766;-84
2021/10/19 03:58:19;;;;;;;31.17;20.55;;;;;;;8.88;75.20;102065.84;1743154;82;21066;-83
2021/10/19 04:04:19;;;;;;;33.23;19.00;;;;;;;8.92;75.34;102062.55;1650465;85;21082;-82
2021/10/19 04:06:46;;;;;;;33.38;19.67;;;;;;;8.89;75.34;102065.89;1650668;86;21663;-82
2021/10/19 04:09:12;;;;;;;32.90;19.02;;;;;;;8.88;75.38;102062.80;1650581;86;21753;-83
2021/10/19 04:11:39;;;;;;;32.35;18.87;;;;;;;8.85;75.43;102058.68;1650488;86;21446;-82
2021/10/19 04:14:06;;;;;;;34.30;19.15;;;;;;;8.84;75.52;102062.53;1650505;86;21098;-80
2021/10/19 04:16:34;;;;;;;31.12;18.82;;;;;;;8.85;75.64;102061.73;1650460;86;21075;-79
2021/10/19 04:19:02;;;;;;;30.27;19.30;;;;;;;8.88;75.79;102052.70;1650748;86;21162;-79
2021/10/19 04:21:30;;;;;;;32.40;18.90;;;;;;;8.91;75.74;102051.53;1626516;86;21644;-80
2021/10/19 04:23:57;;;;;;;32.17;19.17;;;;;;;8.91;75.70;102048.91;1650412;86;21068;-80
2021/10/19 04:26:23;;;;;;;28.98;17.95;;;;;;;8.89;75.74;102049.25;1650644;86;21067;-79
2021/10/19 04:28:50;;;;;;;33.63;17.82;;;;;;;8.87;75.73;102041.28;1650537;86;21414;-79
2021/10/19 04:31:17;;;;;;;30.95;20.20;;;;;;;8.84;75.79;102034.58;1650748;86;21251;-89
2021/10/19 04:33:44;;;;;;;31.82;21.75;;;;;;;8.80;75.80;102029.06;1651285;86;21768;-83
2021/10/19 04:36:15;;;;;;;33.88;26.95;;;;;;;8.78;75.90;102034.65;1650634;86;21090;-90
2021/10/19 04:38:42;;;;;;;39.88;30.40;;;;;;;8.75;76.05;102031.05;1650285;86;21625;-83
2021/10/19 04:41:08;;;;;;;39.65;32.13;;;;;;;8.77;76.14;102036.80;1693224;82;21517;-82
2021/10/19 04:43:35;;;;;;;37.20;29.10;;;;;;;8.75;76.17;102034.98;1742884;82;21070;-82
2021/10/19 04:46:02;;;;;;;33.90;26.33;;;;;;;8.74;76.17;102034.47;1743097;82;21748;-83
2021/10/19 04:48:29;;;;;;;32.93;25.17;;;;;;;8.75;76.36;102040.23;1742945;82;21086;-82
2021/10/19 04:50:55;;;;;;;29.48;20.72;;;;;;;8.75;76.35;102042.86;1742625;81;21560;-82
2021/10/19 04:53:22;;;;;;;28.92;19.30;;;;;;;8.76;76.43;102047.69;1742996;82;21147;-82
2021/10/19 04:55:49;;;;;;;27.85;19.07;;;;;;;8.80;76.68;102043.50;1742886;82;21089;-82
2021/10/19 04:58:16;;;;;;;24.40;17.52;;;;;;;8.82;76.64;102037.53;1743214;82;22520;-81
2021/10/19 05:00:46;;;;;;;25.15;17.55;;;;;;;8.85;76.67;102039.41;1742930;82;21105;-81
2021/10/19 05:03:11;;;;;;;26.33;17.57;;;;;;;8.85;76.56;102038.09;1742854;82;21050;-81
2021/10/19 05:05:38;;;;;;;27.22;19.55;;;;;;;8.84;76.57;102038.52;1742989;82;21172;-82
2021/10/19 05:08:05;;;;;;;25.05;17.82;;;;;;;8.84;76.69;102045.47;1743101;82;21057;-82
2021/10/19 05:10:35;;;;;;;28.42;18.77;;;;;;;8.86;76.84;102045.13;1743042;82;21749;-82
2021/10/19 05:13:00;;;;;;;32.55;21.80;;;;;;;8.89;76.84;102050.14;1742215;82;21607;-84
2021/10/19 05:15:28;;;;;;;29.32;21.07;;;;;;;8.90;76.82;102045.81;1742320;82;21097;-82
2021/10/19 05:17:55;;;;;;;24.32;17.32;;;;;;;8.88;76.85;102042.20;1743053;82;21070;-81
2021/10/19 05:20:22;;;;;;;25.90;18.23;;;;;;;8.88;76.88;102042.20;1743167;82;21713;-83
2021/10/19 05:22:50;;;;;;;26.55;18.27;;;;;;;8.84;76.87;102043.77;1742888;82;21202;-82
2021/10/19 05:25:16;;;;;;;21.12;16.27;;;;;;;8.85;77.05;102043.34;1743027;82;21135;-82
2021/10/19 05:27:45;;;;;;;23.10;16.17;;;;;;;8.86;77.08;102032.00;1743485;82;21109;-83
2021/10/19 05:30:12;;;;;;;20.45;15.03;;;;;;;8.86;77.17;102029.38;1743412;82;21584;-83
2021/10/19 05:32:39;;;;;;;18.65;13.62;;;;;;;8.85;77.25;102031.11;1743292;82;21632;-82
2021/10/19 05:35:06;;;;;;;22.80;13.05;;;;;;;8.86;77.22;102021.50;1743015;82;21757;-82
2021/10/19 05:37:33;;;;;;;18.40;10.98;;;;;;;8.84;77.26;102025.39;1743098;82;21591;-82
2021/10/19 05:40:00;;;;;;;16.67;11.22;;;;;;;8.85;77.40;102028.91;1743039;82;21274;-82
2021/10/19 05:42:27;;;;;;;18.20;11.57;;;;;;;8.87;77.40;102035.14;1743097;82;21663;-82
2021/10/19 05:44:54;;;;;;;17.82;11.48;;;;;;;8.86;77.42;102032.00;1743142;82;21146;-83
2021/10/19 05:47:20;;;;;;;17.62;12.03;;;;;;;8.85;77.48;102023.66;1743241;82;21428;-82
2021/10/19 05:49:47;;;;;;;15.60;11.95;;;;;;;8.85;77.60;102023.66;1741718;82;21058;-82
2021/10/19 05:52:14;;;;;;;21.12;12.63;;;;;;;8.88;77.68;102030.39;1732519;82;21576;-82
2021/10/19 05:54:41;;;;;;;21.75;13.80;;;;;;;8.89;77.69;102029.13;1732836;82;21226;-82
2021/10/19 05:57:07;;;;;;;23.10;14.50;;;;;;;8.89;77.73;102019.05;1732914;82;21066;-82
2021/10/19 05:59:34;;;;;;;23.73;14.98;;;;;;;8.90;77.74;102015.61;1732634;82;21734;-82
2021/10/19 06:02:03;;;;;;;18.90;13.05;;;;;;;8.90;77.77;102015.61;1732751;82;21079;-82
2021/10/19 06:04:30;;;;;;;20.88;12.03;;;;;;;8.89;77.81;102012.48;1732652;82;21274;-82
2021/10/19 06:06:58;;;;;;;16.35;12.03;;;;;;;8.92;77.97;102012.23;1733128;82;21067;-82
2021/10/19 06:09:25;;;;;;;16.62;10.78;;;;;;;8.93;77.96;102018.38;1733186;82;21095;-83
2021/10/19 06:11:55;;;;;;;17.00;11.05;;;;;;;8.96;78.09;102019.86;1732746;82;22363;-82
2021/10/19 06:14:23;;;;;;;14.75;11.03;;;;;;;8.99;78.11;102013.47;1733004;82;21076;-82
2021/10/19 06:16:51;;;;;;;18.90;12.10;;;;;;;9.01;78.07;102010.89;1732625;82;21597;-83
2021/10/19 06:19:21;;;;;;;18.35;12.37;;;;;;;9.01;78.11;102012.20;1732820;82;21536;-82
2021/10/19 06:21:46;;;;;;;16.37;11.68;;;;;;;9.04;78.18;102019.84;1732588;81;21082;-82
2021/10/19 06:24:13;;;;;;;22.37;13.53;;;;;;;9.09;78.29;102023.61;1733013;82;21728;-83
2021/10/19 06:26:40;;;;;;;18.98;13.10;;;;;;;9.12;78.22;102015.90;1732914;82;21079;-82
2021/10/19 06:29:10;;;;;;;22.27;14.58;;;;;;;9.17;78.31;102013.48;1732895;82;21000;-82
2021/10/19 06:31:37;;;;;;;19.05;14.40;;;;;;;9.18;78.24;102014.00;1732732;82;21063;-82
2021/10/19 06:34:03;;;;;;;19.25;15.28;;;;;;;9.22;78.29;102014.64;1732931;82;21067;-82
2021/10/19 06:36:30;;;;;;;22.07;14.85;;;;;;;9.26;78.33;102022.27;1732725;82;22557;-82
2021/10/19 06:38:57;;;;;;;21.87;13.72;;;;;;;9.30;78.36;102017.64;1709680;82;21098;-83
2021/10/19 06:41:24;;;;;;;20.20;12.45;;;;;;;9.32;78.33;102018.20;1732591;82;21130;-82
2021/10/19 06:43:51;;;;;;;18.73;12.90;;;;;;;9.26;78.36;101999.94;1732736;82;21076;-82
2021/10/19 06:46:20;;;;;;;19.37;12.80;;;;;;;9.39;78.46;102019.84;1732862;82;21028;-82
2021/10/19 06:48:46;;;;;;;14.70;12.30;;;;;;;9.42;78.43;102017.35;1732625;82;21781;-81
2021/10/19 06:51:12;;;;;;;16.85;14.38;;;;;;;9.46;78.43;102015.36;1732464;82;21012;-82
2021/10/19 06:53:39;;;;;;;19.82;13.90;;;;;;;9.50;78.48;102015.61;1732674;82;21047;-82
2021/10/19 06:56:06;;;;;;;20.27;16.02;;;;;;;9.57;78.53;102010.64;1732837;82;21059;-81
2021/10/19 06:58:33;;;;;;;22.98;16.90;;;;;;;9.65;78.60;102002.32;1732689;82;21428;-81
2021/10/19 07:01:02;;;;;;;25.02;17.70;;;;;;;9.73;78.57;101998.74;1732660;82;21651;-81
2021/10/19 07:03:28;;;;;;;26.55;18.85;;;;;;;9.80;78.56;101991.64;1732523;82;21597;-81
2021/10/19 07:05:55;;;;;;;27.20;18.67;;;;;;;9.85;78.47;101986.59;1732712;82;21043;-81
2021/10/19 07:08:22;;;;;;;23.95;16.67;;;;;;;9.89;78.46;101988.53;1732684;82;21202;-82
2021/10/19 07:10:49;;;;;;;27.32;17.00;;;;;;;9.94;78.54;101989.66;1732688;81;21090;-81
2021/10/19 07:13:21;;;;;;;24.30;17.67;;;;;;;9.99;78.52;101992.10;1732791;82;22587;-81
2021/10/19 07:15:44;;;;;;;26.48;18.40;;;;;;;10.02;78.53;101990.94;1732174;82;21086;-81
2021/10/19 07:18:11;;;;;;;24.07;16.07;;;;;;;10.05;78.45;101980.97;1732998;82;21043;-82
2021/10/19 07:20:38;;;;;;;21.62;15.75;;;;;;;10.06;78.36;101969.59;1732689;82;21134;-81
2021/10/19 07:23:04;;;;;;;22.98;14.40;;;;;;;10.07;78.47;101961.78;1732697;82;21529;-80
2021/10/19 07:25:31;;;;;;;20.25;13.70;;;;;;;10.11;78.48;101966.34;1732645;82;21751;-81
2021/10/19 07:27:58;;;;;;;18.70;12.45;;;;;;;10.14;78.46;101974.82;1732428;82;21122;-81
2021/10/19 07:30:24;;;;;;;17.27;11.45;;;;;;;10.19;78.52;101977.65;1732396;82;21563;-81
2021/10/19 07:32:52;;;;;;;19.92;11.90;;;;;;;10.21;78.42;101983.48;1732399;82;21153;-81
2021/10/19 07:35:19;;;;;;;21.75;12.68;;;;;;;10.24;78.40;101980.09;1732590;82;21058;-83
2021/10/19 07:37:46;;;;;;;18.52;11.53;;;;;;;10.26;78.42;101979.31;1732463;81;21763;-81
2021/10/19 07:40:14;;;;;;;17.95;12.13;;;;;;;10.30;78.47;101973.42;1732411;82;21047;-81
2021/10/19 07:42:41;;;;;;;19.95;11.45;;;;;;;10.37;78.57;101965.80;1732420;82;21055;-81
2021/10/19 07:45:09;;;;;;;19.90;12.37;;;;;;;10.45;78.45;101956.08;1732532;82;21075;-81
2021/10/19 07:47:46;;;;;;;19.85;13.30;;;;;;;10.49;78.45;101942.64;1732773;82;21079;-81
2021/10/19 07:50:19;;;;;;;19.98;14.03;;;;;;;10.56;78.46;101942.08;1732331;81;21798;-81
2021/10/19 07:52:48;;;;;;;20.23;13.75;;;;;;;10.65;78.41;101941.17;1742682;82;21679;-81
2021/10/19 07:55:14;;;;;;;22.55;14.50;;;;;;;10.74;78.37;101935.84;1742831;82;21030;-80
2021/10/19 07:57:45;;;;;;;26.73;14.87;;;;;;;10.78;78.25;101936.02;1742810;82;21051;-81
2021/10/19 08:00:13;;;;;;;23.67;14.55;;;;;;;10.83;78.21;101937.13;1742740;82;21163;-81
2021/10/19 08:02:44;;;;;;;32.10;24.35;;;;;;;10.85;78.03;101943.79;1743296;82;21744;-81
2021/10/19 08:05:14;;;;;;;21.15;13.85;;;;;;;10.86;77.99;101942.94;1743345;82;21071;-81
2021/10/19 08:07:46;;;;;;;17.52;12.03;;;;;;;10.85;77.90;101936.78;1742962;81;21094;-81
2021/10/19 08:10:19;;;;;;;21.68;13.88;;;;;;;10.86;77.86;101941.19;1742932;82;21008;-81
2021/10/19 08:12:46;;;;;;;24.60;15.40;;;;;;;10.88;77.81;101944.79;1742892;82;21082;-81
2021/10/19 08:15:13;;;;;;;22.80;14.65;;;;;;;10.88;77.79;101956.64;1742929;82;21699;-81
2021/10/19 08:17:40;;;;;;;24.57;13.98;;;;;;;10.89;77.77;101962.41;1711382;82;21585;-81
2021/10/19 08:20:08;;;;;;;20.72;12.10;;;;;;;10.91;77.86;101956.33;1743068;82;21054;-81
2021/10/19 08:22:35;;;;;;;24.18;15.10;;;;;;;10.93;77.79;101948.95;1743033;82;21156;-81
2021/10/19 08:25:03;;;;;;;24.25;14.28;;;;;;;10.97;77.88;101953.52;1743116;82;21554;-81
2021/10/19 08:27:29;;;;;;;25.23;14.38;;;;;;;11.02;77.85;101948.45;1743205;82;21744;-83
2021/10/19 08:29:56;;;;;;;22.98;14.90;;;;;;;11.06;77.85;101945.11;1743040;82;21149;-83
2021/10/19 08:32:23;;;;;;;20.15;12.70;;;;;;;11.10;77.77;101939.13;1743149;82;21599;-83
2021/10/19 08:34:49;;;;;;;21.65;14.00;;;;;;;11.16;77.93;101937.17;1742775;82;21063;-83
2021/10/19 08:37:16;;;;;;;18.05;12.70;;;;;;;11.22;77.80;101929.11;1743041;82;21015;-83
2021/10/19 08:39:43;;;;;;;24.57;14.18;;;;;;;11.29;77.77;101922.34;1743015;82;21683;-80
2021/10/19 08:42:09;;;;;;;21.85;14.18;;;;;;;11.36;77.77;101925.71;1742826;82;21117;-80
2021/10/19 08:44:41;;;;;;;18.77;12.13;;;;;;;11.41;77.64;101929.44;1743013;82;21574;-81
2021/10/19 08:47:05;;;;;;;18.45;12.43;;;;;;;11.45;77.56;101919.92;1742383;82;21031;-83
2021/10/19 08:49:31;;;;;;;26.60;16.40;;;;;;;11.51;77.58;101918.84;1711939;82;21588;-80
2021/10/19 08:51:58;;;;;;;19.52;13.45;;;;;;;11.62;77.57;101932.46;1736256;82;22551;-81
2021/10/19 08:54:25;;;;;;;19.25;12.53;;;;;;;11.74;77.62;101931.60;1732266;82;21204;-81
2021/10/19 08:56:51;;;;;;;21.95;13.62;;;;;;;11.84;77.55;101928.90;1732449;82;21070;-81
2021/10/19 08:59:22;;;;;;;19.48;12.50;;;;;;;11.93;77.42;101928.40;1732602;82;21376;-80
2021/10/19 09:01:50;;;;;;;22.02;13.55;;;;;;;11.97;77.26;101928.56;1732519;82;21068;-80
2021/10/19 09:04:16;;;;;;;19.00;12.58;;;;;;;12.04;77.23;101927.95;1709571;82;21727;-81
2021/10/19 09:06:43;;;;;;;19.48;12.70;;;;;;;12.10;77.05;101928.61;1732344;82;20981;-80
2021/10/19 09:09:13;;;;;;;21.93;16.07;;;;;;;12.14;76.91;101932.27;1732564;82;21101;-80
2021/10/19 09:11:41;;;;;;;16.90;11.93;;;;;;;12.17;76.88;101935.92;1732417;82;21016;-81
2021/10/19 09:14:08;;;;;;;18.98;12.70;;;;;;;12.21;76.88;101940.89;1732496;82;21004;-81
2021/10/19 09:16:48;;;;;;;21.48;14.50;;;;;;;12.23;76.73;101930.86;1732455;82;22423;-81
2021/10/19 09:19:20;;;;;;;17.30;12.82;;;;;;;12.24;76.64;101927.83;1732348;82;21007;-82
2021/10/19 09:21:52;;;;;;;19.23;13.20;;;;;;;12.29;76.68;101924.02;1732497;82;21059;-82
2021/10/19 09:24:25;;;;;;;23.87;14.28;;;;;;;12.32;76.65;101921.07;1732055;82;21684;-82
2021/10/19 09:27:13;;;;;;;18.35;13.38;;;;;;;12.35;76.58;101909.31;1732743;82;21560;-82
2021/10/19 09:29:48;;;;;;;19.82;14.47;;;;;;;12.38;76.48;101889.60;1711748;82;21763;-82
2021/10/19 09:32:17;;;;;;;21.70;13.68;;;;;;;12.47;76.54;101892.11;1732406;82;21012;-82
2021/10/19 09:34:45;;;;;;;19.67;14.20;;;;;;;12.55;76.60;101886.67;1732470;82;21074;-82
2021/10/19 09:37:20;;;;;;;21.68;15.03;;;;;;;12.70;76.59;101891.59;1732683;82;21102;-82
2021/10/19 09:39:51;;;;;;;24.00;15.93;;;;;;;12.78;76.43;101887.05;1709644;82;21098;-82
2021/10/19 09:42:24;;;;;;;25.57;16.65;;;;;;;12.88;76.33;101886.94;1732638;82;21772;-82
2021/10/19 09:44:57;;;;;;;28.35;17.87;;;;;;;12.92;76.12;101895.44;1731582;82;21019;-82
2021/10/19 09:47:20;;;;;;;25.62;18.40;;;;;;;12.94;75.96;101894.17;1731920;82;21576;-82
2021/10/19 09:49:49;;;;;;;27.15;19.12;;;;;;;12.88;75.86;101885.61;1707752;82;21549;-82
2021/10/19 09:52:15;;;;;;;24.50;17.17;;;;;;;12.82;75.66;101882.78;1738605;81;20991;-82
2021/10/19 09:54:42;;;;;;;24.67;18.35;;;;;;;12.72;75.69;101881.54;1742973;82;21767;-82
2021/10/19 09:57:09;;;;;;;26.27;18.00;;;;;;;12.66;75.70;101888.38;1688355;82;21070;-82
2021/10/19 09:59:36;;;;;;;26.17;18.35;;;;;;;12.59;75.74;101893.45;1742981;82;21070;-82
2021/10/19 10:02:03;;;;;;;26.27;19.00;;;;;;;12.59;75.92;101894.77;1743126;82;21042;-82
2021/10/19 10:04:30;;;;;;;33.28;21.80;;;;;;;12.60;75.94;101899.62;1742807;82;21078;-82
2021/10/19 10:06:57;;;;;;;30.40;21.37;;;;;;;12.55;75.84;101891.52;1742900;82;21751;-82
2021/10/19 10:09:24;;;;;;;38.55;22.00;;;;;;;12.55;75.93;101884.91;1743036;82;21056;-82
2021/10/19 10:11:52;;;;;;;30.85;20.72;;;;;;;12.54;75.98;101874.33;1742457;82;21074;-82
2021/10/19 10:14:19;;;;;;;36.50;23.05;;;;;;;12.53;76.00;101883.08;1743234;82;21190;-82
2021/10/19 10:16:47;;;;;;;37.50;24.00;;;;;;;12.55;76.19;101880.95;1743290;81;21696;-82
2021/10/19 10:19:20;;;;;;;43.00;25.12;;;;;;;12.54;76.15;101889.73;1743067;82;21770;-82
2021/10/19 10:21:53;;;;;;;40.65;24.63;;;;;;;12.53;76.14;101886.61;1742827;82;21603;-82
2021/10/19 10:24:31;;;;;;;41.68;26.48;;;;;;;12.51;76.10;101879.48;1743302;82;21073;-82
2021/10/19 10:27:12;;;;;;;40.85;24.77;;;;;;;12.54;76.30;101873.89;1742975;82;21540;-81
2021/10/19 10:29:43;;;;;;;35.78;24.25;;;;;;;12.59;76.30;101868.75;1741700;82;21638;-81
2021/10/19 10:32:23;;;;;;;37.45;24.92;;;;;;;12.61;76.24;101868.38;1742967;82;21755;-82
2021/10/19 10:35:05;;;;;;;38.33;24.55;;;;;;;12.63;76.25;101867.61;1723416;82;21563;-81
2021/10/19 10:37:43;;;;;;;35.38;26.07;;;;;;;12.68;76.34;101869.51;1743060;82;21062;-81
2021/10/19 10:40:30;;;;;;;35.50;24.55;;;;;;;12.68;76.20;101866.86;1730015;82;21141;-81
2021/10/19 10:42:59;;;;;;;37.60;25.68;;;;;;;12.74;76.30;101852.53;1742965;82;21625;-82
2021/10/19 10:45:33;;;;;;;35.15;25.23;;;;;;;12.76;76.22;101851.77;1743099;82;21790;-82
2021/10/19 10:48:04;;;;;;;36.13;24.77;;;;;;;12.76;76.19;101841.59;1742823;82;21063;-82
2021/10/19 10:50:33;;;;;;;52.62;36.53;;;;;;;12.76;76.09;101819.14;1742841;82;21630;-81
2021/10/19 10:53:09;;;;;;;51.90;36.90;;;;;;;12.70;75.88;101804.41;1744696;82;21185;-82
2021/10/19 10:55:43;;;;;;;43.70;28.98;;;;;;;12.64;76.02;101787.94;1745779;82;21090;-82
2021/10/19 10:58:10;;;;;;;35.13;25.27;;;;;;;12.66;76.17;101787.99;1745451;82;22368;-82
2021/10/19 11:00:37;;;;;;;37.38;25.45;;;;;;;12.71;76.29;101791.69;1745720;82;21064;-81
2021/10/19 11:03:14;;;;;;;36.95;25.08;;;;;;;12.80;76.40;101784.96;1745624;82;21074;-82
2021/10/19 11:05:58;;;;;;;41.40;26.75;;;;;;;12.90;76.47;101782.61;1745858;81;21082;-81
2021/10/19 11:08:27;;;;;;;35.05;26.52;;;;;;;13.02;76.44;101771.98;1745751;82;21106;-82
2021/10/19 11:11:13;;;;;;;41.75;27.50;;;;;;;13.10;76.33;101767.36;1745742;82;22545;-82
2021/10/19 11:13:58;;;;;;;35.40;26.20;;;;;;;13.18;76.19;101760.16;1745708;81;21070;-81
2021/10/19 11:16:49;;;;;;;33.18;25.20;;;;;;;13.26;76.09;101756.84;1746009;82;21118;-82
2021/10/19 11:19:26;;;;;;;33.98;25.10;;;;;;;13.37;76.10;101754.13;1744735;82;21597;-82
2021/10/19 11:21:56;;;;;;;33.88;24.87;;;;;;;13.54;76.12;101753.30;1745492;82;21618;-82
2021/10/19 11:24:25;;;;;;;37.85;28.57;;;;;;;13.73;76.00;101748.11;1744442;81;22593;-82